createdAt,value
2023-09-23T00:00:36.953Z,7.22
2023-09-23T00:03:04.239Z,8.05
2023-09-23T00:05:33.300Z,7.28
2023-09-23T00:08:00.109Z,7.85
2023-09-23T00:10:26.707Z,7.47
2023-09-23T00:12:53.620Z,7.22
2023-09-23T00:15:20.511Z,7.38
2023-09-23T00:17:46.956Z,7.68
2023-09-23T00:20:16.336Z,7.38
2023-09-23T00:22:48.954Z,7.28
2023-09-23T00:25:19.907Z,7.30
2023-09-23T00:27:50.167Z,8.30
2023-09-23T00:30:18.991Z,7.68
2023-09-23T00:32:45.531Z,8.13
2023-09-23T00:35:13.218Z,7.90
2023-09-23T00:37:44.720Z,8.27
2023-09-23T00:40:18.267Z,8.50
2023-09-23T00:42:48.685Z,8.13
2023-09-23T00:45:16.424Z,8.48
2023-09-23T00:47:47.145Z,8.30
2023-09-23T00:50:20.012Z,8.45
2023-09-23T00:52:53.921Z,8.30
2023-09-23T00:55:21.322Z,8.15
2023-09-23T00:57:50.291Z,8.45
2023-09-23T01:00:25.535Z,8.70
2023-09-23T01:02:52.253Z,8.13
2023-09-23T01:05:20.083Z,9.18
2023-09-23T01:07:50.072Z,8.05
2023-09-23T01:10:20.290Z,8.07
2023-09-23T01:12:47.816Z,8.13
2023-09-23T01:15:15.020Z,8.50
2023-09-23T01:17:41.676Z,8.90
2023-09-23T01:20:12.091Z,8.82
2023-09-23T01:22:38.868Z,8.82
2023-09-23T01:25:05.747Z,8.90
2023-09-23T01:27:35.712Z,8.20
2023-09-23T01:30:05.042Z,7.78
2023-09-23T01:32:46.833Z,8.05
2023-09-23T01:35:17.795Z,7.70
2023-09-23T01:37:48.362Z,7.55
2023-09-23T01:40:18.244Z,6.40
2023-09-23T01:42:50.297Z,6.53
2023-09-23T01:45:17.986Z,6.00
2023-09-23T01:47:45.379Z,5.90
2023-09-23T01:50:13.029Z,5.68
2023-09-23T01:52:41.883Z,6.18
2023-09-23T01:55:11.574Z,5.90
2023-09-23T01:57:37.931Z,6.60
2023-09-23T02:00:05.986Z,5.75
2023-09-23T02:02:32.506Z,6.70
2023-09-23T02:04:58.982Z,6.82
2023-09-23T02:07:25.479Z,6.47
2023-09-23T02:09:51.860Z,6.63
2023-09-23T02:12:18.255Z,6.03
2023-09-23T02:14:44.626Z,6.90
2023-09-23T02:17:11.214Z,6.75
2023-09-23T02:19:38.462Z,5.90
2023-09-23T02:22:07.774Z,5.63
2023-09-23T02:24:37.734Z,5.53
2023-09-23T02:27:04.888Z,5.60
2023-09-23T02:29:35.488Z,6.53
2023-09-23T02:32:02.037Z,6.47
2023-09-23T02:34:31.910Z,6.78
2023-09-23T02:36:58.369Z,6.25
2023-09-23T02:39:24.914Z,6.32
2023-09-23T02:41:52.000Z,6.60
2023-09-23T02:44:20.455Z,6.10
2023-09-23T02:46:47.897Z,6.35
2023-09-23T02:49:15.078Z,6.50
2023-09-23T02:51:45.415Z,5.78
2023-09-23T02:54:22.280Z,6.57
2023-09-23T02:56:49.809Z,6.57
2023-09-23T02:59:17.050Z,7.25
2023-09-23T03:01:49.888Z,7.10
2023-09-23T03:04:21.487Z,6.90
2023-09-23T03:06:51.829Z,7.63
2023-09-23T03:09:20.997Z,7.85
2023-09-23T03:11:57.028Z,8.00
2023-09-23T03:14:26.716Z,8.63
2023-09-23T03:16:55.343Z,8.55
2023-09-23T03:19:28.015Z,8.77
2023-09-23T03:21:58.368Z,8.05
2023-09-23T03:24:26.461Z,7.72
2023-09-23T03:26:59.401Z,7.35
2023-09-23T03:29:29.677Z,7.63
2023-09-23T03:31:57.487Z,7.90
2023-09-23T03:34:24.930Z,8.38
2023-09-23T03:36:54.172Z,7.82
2023-09-23T03:39:21.470Z,7.82
2023-09-23T03:41:47.963Z,8.48
2023-09-23T03:44:18.249Z,9.05
2023-09-23T03:46:48.942Z,8.90
2023-09-23T03:49:15.383Z,8.60
2023-09-23T03:51:42.358Z,8.30
2023-09-23T03:54:08.696Z,9.15
2023-09-23T03:56:35.476Z,8.40
2023-09-23T03:59:07.417Z,8.68
2023-09-23T04:01:34.658Z,8.70
2023-09-23T04:04:02.962Z,8.80
2023-09-23T04:06:29.986Z,9.30
2023-09-23T04:09:00.038Z,9.35
2023-09-23T04:11:27.252Z,9.23
2023-09-23T04:13:54.467Z,8.82
2023-09-23T04:16:20.946Z,8.63
2023-09-23T04:18:52.793Z,7.85
2023-09-23T04:21:21.631Z,8.07
2023-09-23T04:23:50.092Z,8.93
2023-09-23T04:26:16.801Z,8.85
2023-09-23T04:28:45.427Z,9.20
2023-09-23T04:31:13.409Z,9.00
2023-09-23T04:33:41.088Z,8.75
2023-09-23T04:36:11.795Z,8.35
2023-09-23T04:38:38.534Z,8.48
2023-09-23T04:41:04.939Z,8.48
2023-09-23T04:43:32.100Z,9.30
2023-09-23T04:45:58.845Z,8.95
2023-09-23T04:48:26.256Z,9.70
2023-09-23T04:50:56.786Z,9.77
2023-09-23T04:53:23.438Z,9.23
2023-09-23T04:55:49.809Z,9.48
2023-09-23T04:58:16.169Z,10.10
2023-09-23T05:00:42.579Z,9.20
2023-09-23T05:03:09.845Z,9.93
2023-09-23T05:05:37.964Z,10.55
2023-09-23T05:08:06.187Z,10.38
2023-09-23T05:10:33.908Z,10.57
2023-09-23T05:13:00.317Z,10.73
2023-09-23T05:15:26.850Z,10.85
2023-09-23T05:17:55.626Z,11.93
2023-09-23T05:20:26.256Z,12.35
2023-09-23T05:22:53.860Z,11.02
2023-09-23T05:25:21.099Z,11.48
2023-09-23T05:27:47.778Z,11.50
2023-09-23T05:30:14.200Z,10.52
2023-09-23T05:32:40.613Z,10.93
2023-09-23T05:35:11.006Z,11.57
2023-09-23T05:37:38.319Z,10.93
2023-09-23T05:40:22.734Z,11.45
2023-09-23T05:42:52.866Z,11.98
2023-09-23T05:45:20.193Z,11.13
2023-09-23T05:47:46.802Z,11.88
2023-09-23T05:50:14.904Z,12.20
2023-09-23T05:52:41.401Z,11.52
2023-09-23T05:55:08.228Z,10.55
2023-09-23T05:57:39.872Z,11.38
2023-09-23T06:00:09.066Z,12.27
2023-09-23T06:02:35.815Z,11.65
2023-09-23T06:05:03.174Z,11.85
2023-09-23T06:07:30.383Z,11.07
2023-09-23T06:09:59.252Z,11.18
2023-09-23T06:12:33.040Z,11.15
2023-09-23T06:15:00.723Z,11.23
2023-09-23T06:17:29.236Z,10.93
2023-09-23T06:20:00.512Z,11.95
2023-09-23T06:22:27.687Z,10.70
2023-09-23T06:24:55.092Z,24.90
2023-09-23T06:27:22.315Z,11.02
2023-09-23T06:29:48.689Z,10.93
2023-09-23T06:32:15.196Z,11.05
2023-09-23T06:34:41.734Z,10.80
2023-09-23T06:37:08.079Z,11.93
2023-09-23T06:39:34.454Z,10.57
2023-09-23T06:42:00.852Z,10.40
2023-09-23T06:44:27.287Z,11.02
2023-09-23T06:46:53.858Z,9.65
2023-09-23T06:49:20.521Z,10.57
2023-09-23T06:51:46.906Z,9.23
2023-09-23T06:54:14.658Z,9.55
2023-09-23T06:56:41.063Z,10.23
2023-09-23T06:59:08.949Z,10.18
2023-09-23T07:01:36.152Z,9.55
2023-09-23T07:04:03.449Z,9.20
2023-09-23T07:06:30.034Z,9.40
2023-09-23T07:08:56.512Z,9.52
2023-09-23T07:11:24.563Z,9.65
2023-09-23T07:13:51.173Z,9.60
2023-09-23T07:16:17.721Z,8.90
2023-09-23T07:18:47.513Z,9.48
2023-09-23T07:21:14.089Z,9.80
2023-09-23T07:23:40.696Z,10.07
2023-09-23T07:26:07.315Z,8.77
2023-09-23T07:28:33.861Z,8.52
2023-09-23T07:31:00.776Z,8.00
2023-09-23T07:33:27.240Z,7.47
2023-09-23T07:35:54.461Z,6.55
2023-09-23T07:38:24.623Z,6.50
2023-09-23T07:40:51.444Z,6.50
2023-09-23T07:43:17.792Z,6.47
2023-09-23T07:45:47.064Z,6.60
2023-09-23T07:48:13.707Z,6.05
2023-09-23T07:50:40.129Z,6.20
2023-09-23T07:53:07.073Z,5.68
2023-09-23T07:55:33.438Z,5.72
2023-09-23T07:57:59.800Z,6.10
2023-09-23T08:00:27.200Z,6.30
2023-09-23T08:02:54.920Z,5.47
2023-09-23T08:05:25.101Z,5.60
2023-09-23T08:07:52.556Z,6.13
2023-09-23T08:10:19.301Z,8.02
2023-09-23T08:12:45.936Z,6.13
2023-09-23T08:15:12.850Z,5.90
2023-09-23T08:17:40.648Z,5.20
2023-09-23T08:20:18.886Z,4.60
2023-09-23T08:22:46.589Z,4.78
2023-09-23T08:25:14.632Z,4.57
2023-09-23T08:27:42.297Z,4.57
2023-09-23T08:30:12.643Z,4.25
2023-09-23T08:32:42.507Z,4.20
2023-09-23T08:35:09.103Z,4.35
2023-09-23T08:37:36.293Z,4.32
2023-09-23T08:40:12.159Z,3.55
2023-09-23T08:42:39.819Z,3.80
2023-09-23T08:45:09.269Z,3.65
2023-09-23T08:47:37.697Z,3.40
2023-09-23T08:50:09.508Z,3.35
2023-09-23T08:52:36.486Z,3.42
2023-09-23T08:55:05.853Z,3.63
2023-09-23T08:57:32.483Z,3.17
2023-09-23T08:59:58.934Z,3.25
2023-09-23T09:02:30.316Z,3.05
2023-09-23T09:04:58.290Z,3.20
2023-09-23T09:07:38.086Z,2.72
2023-09-23T09:10:06.266Z,3.60
2023-09-23T09:12:33.170Z,2.80
2023-09-23T09:14:59.637Z,2.97
2023-09-23T09:17:26.108Z,3.25
2023-09-23T09:19:52.600Z,3.25
2023-09-23T09:22:20.633Z,3.13
2023-09-23T09:24:47.951Z,3.47
2023-09-23T09:27:15.078Z,2.80
2023-09-23T09:29:42.138Z,2.70
2023-09-23T09:32:12.892Z,2.45
2023-09-23T09:34:48.883Z,3.13
2023-09-23T09:37:16.156Z,2.83
2023-09-23T09:39:54.292Z,2.78
2023-09-23T09:42:34.455Z,2.47
2023-09-23T09:45:01.495Z,2.53
2023-09-23T09:47:29.064Z,2.45
2023-09-23T09:49:56.253Z,2.42
2023-09-23T09:52:26.999Z,2.70
2023-09-23T09:54:58.576Z,2.70
2023-09-23T09:57:28.003Z,2.08
2023-09-23T10:00:02.184Z,2.42
2023-09-23T10:02:29.261Z,2.40
2023-09-23T10:05:03.208Z,2.40
2023-09-23T10:07:55.873Z,2.78
2023-09-23T10:10:32.665Z,2.33
2023-09-23T10:13:08.111Z,2.78
2023-09-23T10:15:38.765Z,2.53
2023-09-23T10:18:21.245Z,2.40
2023-09-23T10:20:53.283Z,2.67
2023-09-23T10:23:21.415Z,2.95
2023-09-23T10:25:52.581Z,2.53
2023-09-23T10:28:27.215Z,2.67
2023-09-23T10:31:01.509Z,2.60
2023-09-23T10:33:31.103Z,2.70
2023-09-23T10:35:58.741Z,2.40
2023-09-23T10:38:32.505Z,2.40
2023-09-23T10:40:59.116Z,3.28
2023-09-23T10:43:25.595Z,2.75
2023-09-23T10:45:57.981Z,3.00
2023-09-23T10:48:24.843Z,2.67
2023-09-23T10:50:52.218Z,2.80
2023-09-23T10:53:31.129Z,2.60
2023-09-23T10:56:02.900Z,2.42
2023-09-23T10:58:32.963Z,2.10
2023-09-23T11:00:59.470Z,2.35
2023-09-23T11:03:26.021Z,2.35
2023-09-23T11:05:52.712Z,2.25
2023-09-23T11:08:20.276Z,2.20
2023-09-23T11:10:48.823Z,2.17
2023-09-23T11:13:17.084Z,1.70
2023-09-23T11:15:46.375Z,2.10
2023-09-23T11:18:16.738Z,2.03
2023-09-23T11:20:45.672Z,2.30
2023-09-23T11:23:13.613Z,1.95
2023-09-23T11:25:42.953Z,1.90
2023-09-23T11:28:18.981Z,2.10
2023-09-23T11:30:45.957Z,1.80
2023-09-23T11:33:13.029Z,2.00
2023-09-23T11:35:40.446Z,1.73
2023-09-23T11:38:07.611Z,1.90
2023-09-23T11:40:35.127Z,2.33
2023-09-23T11:43:02.496Z,1.95
2023-09-23T11:45:29.102Z,2.17
2023-09-23T11:47:58.395Z,2.00
2023-09-23T11:50:25.342Z,1.80
2023-09-23T11:52:53.629Z,1.90
2023-09-23T11:55:20.284Z,1.85
2023-09-23T11:57:46.615Z,1.95
2023-09-23T12:00:16.156Z,1.70
2023-09-23T12:02:43.057Z,1.80
2023-09-23T12:05:17.722Z,1.73
2023-09-23T12:07:45.228Z,1.42
2023-09-23T12:10:14.664Z,1.67
2023-09-23T12:12:43.750Z,1.70
2023-09-23T12:15:10.508Z,1.60
2023-09-23T12:17:37.816Z,1.65
2023-09-23T12:20:08.510Z,1.60
2023-09-23T12:22:34.922Z,1.95
2023-09-23T12:25:01.659Z,1.52
2023-09-23T12:27:29.144Z,1.80
2023-09-23T12:29:56.797Z,4.38
2023-09-23T12:32:23.569Z,2.30
2023-09-23T12:34:50.453Z,2.30
2023-09-23T12:37:17.136Z,3.83
2023-09-23T12:39:44.476Z,2.08
2023-09-23T12:42:11.472Z,2.20
2023-09-23T12:44:37.879Z,2.10
2023-09-23T12:47:04.957Z,1.70
2023-09-23T12:49:31.472Z,1.60
2023-09-23T12:51:58.086Z,1.48
2023-09-23T12:54:24.766Z,28.30
2023-09-23T12:56:51.166Z,1.88
2023-09-23T12:59:17.925Z,1.40
2023-09-23T13:01:44.535Z,1.27
2023-09-23T13:04:11.525Z,1.20
2023-09-23T13:06:39.848Z,1.63
2023-09-23T13:09:06.305Z,1.10
2023-09-23T13:11:33.561Z,1.10
2023-09-23T13:14:00.000Z,1.52
2023-09-23T13:16:26.443Z,4.22
2023-09-23T13:18:52.887Z,12.85
2023-09-23T13:21:19.559Z,3.15
2023-09-23T13:23:46.020Z,2.65
2023-09-23T13:26:13.333Z,2.03
2023-09-23T13:28:40.696Z,1.80
2023-09-23T13:31:07.132Z,1.60
2023-09-23T13:33:33.716Z,1.17
2023-09-23T13:36:00.398Z,1.33
2023-09-23T13:38:26.858Z,1.33
2023-09-23T13:40:53.902Z,1.48
2023-09-23T13:43:20.303Z,1.42
2023-09-23T13:45:48.533Z,1.40
2023-09-23T13:48:15.001Z,1.30
2023-09-23T13:50:41.767Z,10.93
2023-09-23T13:53:08.185Z,1.20
2023-09-23T13:55:34.709Z,1.45
2023-09-23T13:58:01.248Z,1.45
2023-09-23T14:00:30.049Z,1.20
2023-09-23T14:02:58.380Z,1.17
2023-09-23T14:05:24.987Z,1.80
2023-09-23T14:07:51.726Z,25.10
2023-09-23T14:10:21.954Z,2.13
2023-09-23T14:12:49.755Z,1.88
2023-09-23T14:15:16.678Z,2.08
2023-09-23T14:17:43.448Z,1.80
2023-09-23T14:20:13.518Z,1.10
2023-09-23T14:22:40.914Z,2.22
2023-09-23T14:25:10.817Z,1.25
2023-09-23T14:27:37.194Z,0.90
2023-09-23T14:30:04.838Z,1.00
2023-09-23T14:32:31.264Z,0.75
2023-09-23T14:34:57.654Z,0.90
2023-09-23T14:37:23.999Z,0.95
2023-09-23T14:39:50.329Z,1.05
2023-09-23T14:42:16.868Z,1.75
2023-09-23T14:44:43.850Z,1.20
2023-09-23T14:47:10.468Z,1.08
2023-09-23T14:49:37.138Z,1.10
2023-09-23T14:52:03.603Z,0.90
2023-09-23T14:54:30.698Z,1.10
2023-09-23T14:56:57.040Z,0.90
2023-09-23T14:59:23.433Z,0.82
2023-09-23T15:01:49.922Z,1.08
2023-09-23T15:04:16.405Z,1.00
2023-09-23T15:06:43.678Z,0.90
2023-09-23T15:09:12.684Z,0.98
2023-09-23T15:11:39.557Z,0.90
2023-09-23T15:14:06.418Z,1.17
2023-09-23T15:16:32.875Z,0.88
2023-09-23T15:18:59.292Z,0.85
2023-09-23T15:21:25.766Z,1.00
2023-09-23T15:23:52.127Z,1.08
2023-09-23T15:26:18.867Z,1.10
2023-09-23T15:28:46.436Z,1.10
2023-09-23T15:31:13.160Z,1.00
2023-09-23T15:33:39.714Z,1.15
2023-09-23T15:36:06.330Z,0.80
2023-09-23T15:38:33.661Z,1.20
2023-09-23T15:41:00.054Z,1.08
2023-09-23T15:43:26.496Z,1.27
2023-09-23T15:46:00.369Z,1.48
2023-09-23T15:48:27.544Z,11.57
2023-09-23T15:50:55.074Z,9.50
2023-09-23T15:53:21.619Z,5.05
2023-09-23T15:55:51.648Z,2.22
2023-09-23T15:58:19.196Z,2.38
2023-09-23T16:00:45.636Z,1.00
2023-09-23T16:03:12.148Z,1.88
2023-09-23T16:05:38.709Z,1.30
2023-09-23T16:08:05.426Z,1.35
2023-09-23T16:10:31.864Z,1.10
2023-09-23T16:12:58.593Z,5.75
2023-09-23T16:15:25.004Z,7.28
2023-09-23T16:17:51.498Z,1.85
2023-09-23T16:20:18.076Z,11.80
2023-09-23T16:22:44.488Z,1.90
2023-09-23T16:25:10.867Z,1.67
2023-09-23T16:27:41.541Z,1.20
2023-09-23T16:30:09.441Z,0.88
2023-09-23T16:32:36.547Z,0.90
2023-09-23T16:35:04.769Z,0.80
2023-09-23T16:37:32.782Z,1.50
2023-09-23T16:39:59.168Z,1.20
2023-09-23T16:42:25.545Z,1.30
2023-09-23T16:44:52.680Z,1.13
2023-09-23T16:47:19.584Z,1.10
2023-09-23T16:49:46.122Z,1.13
2023-09-23T16:52:12.818Z,1.05
2023-09-23T16:54:43.674Z,1.08
2023-09-23T16:57:10.858Z,1.20
2023-09-23T16:59:37.253Z,1.50
2023-09-23T17:02:03.800Z,1.50
2023-09-23T17:04:30.417Z,1.40
2023-09-23T17:06:57.376Z,1.20
2023-09-23T17:09:23.733Z,2.13
2023-09-23T17:11:50.273Z,1.20
2023-09-23T17:14:17.362Z,1.35
2023-09-23T17:16:44.039Z,1.40
2023-09-23T17:19:10.562Z,1.40
2023-09-23T17:21:37.013Z,1.15
2023-09-23T17:24:03.509Z,1.30
2023-09-23T17:26:29.938Z,1.30
2023-09-23T17:29:00.296Z,1.20
2023-09-23T17:31:27.601Z,1.40
2023-09-23T17:33:54.511Z,1.38
2023-09-23T17:36:21.346Z,1.77
2023-09-23T17:38:47.951Z,1.30
2023-09-23T17:41:15.103Z,1.50
2023-09-23T17:43:41.762Z,1.40
2023-09-23T17:46:08.208Z,1.20
2023-09-23T17:48:34.775Z,1.50
2023-09-23T17:51:01.521Z,1.70
2023-09-23T17:53:32.722Z,1.70
2023-09-23T17:56:00.142Z,1.40
2023-09-23T17:58:27.118Z,1.50
2023-09-23T18:00:53.778Z,1.33
2023-09-23T18:03:20.681Z,1.30
2023-09-23T18:05:47.367Z,1.20
2023-09-23T18:08:16.339Z,1.60
2023-09-23T18:10:42.920Z,1.52
2023-09-23T18:13:09.425Z,1.70
2023-09-23T18:15:35.806Z,1.83
2023-09-23T18:18:02.342Z,1.50
2023-09-23T18:20:29.660Z,1.50
2023-09-23T18:22:56.129Z,1.60
2023-09-23T18:25:22.532Z,1.73
2023-09-23T18:27:48.951Z,1.70
2023-09-23T18:30:15.674Z,1.80
2023-09-23T18:32:44.035Z,2.53
2023-09-23T18:35:11.953Z,3.92
2023-09-23T18:37:38.458Z,2.38
2023-09-23T18:40:05.565Z,2.33
2023-09-23T18:42:31.972Z,3.20
2023-09-23T18:44:58.375Z,2.38
2023-09-23T18:47:25.048Z,2.40
2023-09-23T18:49:51.657Z,1.73
2023-09-23T18:52:18.428Z,1.60
2023-09-23T18:54:45.273Z,1.90
2023-09-23T18:57:14.937Z,1.90
2023-09-23T18:59:41.751Z,1.80
2023-09-23T19:02:09.863Z,1.80
2023-09-23T19:04:36.464Z,1.80
2023-09-23T19:07:02.924Z,2.17
2023-09-23T19:09:32.009Z,1.90
2023-09-23T19:11:58.758Z,1.67
2023-09-23T19:14:25.881Z,2.08
2023-09-23T19:16:54.580Z,2.28
2023-09-23T19:19:20.953Z,2.10
2023-09-23T19:21:48.053Z,2.22
2023-09-23T19:24:14.543Z,2.05
2023-09-23T19:26:55.728Z,2.10
2023-09-23T19:29:23.557Z,2.20
2023-09-23T19:31:50.013Z,1.98
2023-09-23T19:34:16.729Z,2.22
2023-09-23T19:36:43.904Z,2.13
2023-09-23T19:39:13.260Z,2.08
2023-09-23T19:41:40.058Z,1.63
2023-09-23T19:44:06.868Z,2.20
2023-09-23T19:46:33.412Z,1.90
2023-09-23T19:49:00.621Z,1.90
2023-09-23T19:51:27.874Z,1.90
2023-09-23T19:53:54.264Z,1.75
2023-09-23T19:56:20.750Z,1.75
2023-09-23T19:58:49.041Z,1.80
2023-09-23T20:01:16.005Z,2.00
2023-09-23T20:03:42.681Z,2.17
2023-09-23T20:06:10.340Z,2.10
2023-09-23T20:08:38.105Z,2.17
2023-09-23T20:11:05.539Z,1.98
2023-09-23T20:13:32.183Z,2.20
2023-09-23T20:16:00.278Z,1.92
2023-09-23T20:18:26.826Z,1.63
2023-09-23T20:20:53.319Z,1.92
2023-09-23T20:23:23.497Z,1.90
2023-09-23T20:25:52.587Z,1.40
2023-09-23T20:28:20.753Z,1.60
2023-09-23T20:30:49.518Z,1.70
2023-09-23T20:33:18.953Z,1.77
2023-09-23T20:35:45.980Z,2.05
2023-09-23T20:38:14.036Z,2.50
2023-09-23T20:40:42.948Z,2.30
2023-09-23T20:43:09.484Z,2.30
2023-09-23T20:45:41.495Z,2.35
2023-09-23T20:48:09.977Z,2.30
2023-09-23T20:50:40.824Z,2.10
2023-09-23T20:53:07.941Z,2.10
2023-09-23T20:55:34.980Z,1.92
2023-09-23T20:58:04.656Z,1.83
2023-09-23T21:00:31.404Z,2.00
2023-09-23T21:02:58.165Z,2.00
2023-09-23T21:05:24.884Z,1.70
2023-09-23T21:07:53.254Z,2.17
2023-09-23T21:10:19.862Z,1.95
2023-09-23T21:12:46.201Z,1.90
2023-09-23T21:15:18.593Z,1.70
2023-09-23T21:17:47.346Z,2.13
2023-09-23T21:20:16.269Z,1.85
2023-09-23T21:22:44.932Z,1.70
2023-09-23T21:25:11.957Z,1.90
2023-09-23T21:27:38.559Z,2.10
2023-09-23T21:30:06.863Z,1.90
2023-09-23T21:32:33.471Z,1.77
2023-09-23T21:34:59.882Z,2.05
2023-09-23T21:37:26.248Z,1.83
2023-09-23T21:39:53.340Z,2.10
2023-09-23T21:42:20.066Z,2.15
2023-09-23T21:44:46.506Z,2.10
2023-09-23T21:47:16.650Z,2.00
2023-09-23T21:49:44.456Z,1.98
2023-09-23T21:52:10.942Z,2.00
2023-09-23T21:54:37.349Z,1.90
2023-09-23T21:57:04.236Z,1.88
2023-09-23T21:59:30.695Z,1.90
2023-09-23T22:01:57.163Z,2.10
2023-09-23T22:04:23.608Z,1.65
2023-09-23T22:06:50.881Z,1.90
2023-09-23T22:09:19.109Z,2.03
2023-09-23T22:11:45.608Z,2.05
2023-09-23T22:14:13.463Z,2.00
2023-09-23T22:16:40.112Z,2.13
2023-09-23T22:19:07.169Z,2.10
2023-09-23T22:21:36.472Z,2.00
2023-09-23T22:24:08.566Z,2.35
2023-09-23T22:26:38.762Z,2.50
2023-09-23T22:29:10.202Z,2.33
2023-09-23T22:31:37.372Z,2.15
2023-09-23T22:34:05.138Z,2.20
2023-09-23T22:36:33.640Z,2.47
2023-09-23T22:39:00.468Z,2.08
2023-09-23T22:41:29.232Z,2.10
2023-09-23T22:43:56.594Z,2.30
2023-09-23T22:46:23.668Z,2.33
2023-09-23T22:48:52.028Z,2.50
2023-09-23T22:51:19.675Z,2.42
2023-09-23T22:53:46.809Z,2.38
2023-09-23T22:56:13.574Z,2.35
2023-09-23T22:58:40.280Z,2.33
2023-09-23T23:01:10.190Z,2.38
2023-09-23T23:03:36.967Z,2.63
2023-09-23T23:06:08.173Z,2.78
2023-09-23T23:08:35.652Z,2.67
2023-09-23T23:11:07.826Z,2.50
2023-09-23T23:13:36.702Z,2.80
2023-09-23T23:16:07.779Z,2.88
2023-09-23T23:18:35.027Z,2.40
2023-09-23T23:21:03.021Z,2.25
2023-09-23T23:23:31.132Z,2.30
2023-09-23T23:26:00.043Z,2.33
2023-09-23T23:28:28.724Z,2.63
2023-09-23T23:30:55.380Z,2.30
2023-09-23T23:33:22.009Z,2.50
2023-09-23T23:35:48.723Z,2.65
2023-09-23T23:38:15.685Z,2.40
2023-09-23T23:40:42.482Z,2.50
2023-09-23T23:43:10.270Z,2.67
2023-09-23T23:45:36.735Z,2.50
2023-09-23T23:48:03.504Z,2.20
2023-09-23T23:50:31.241Z,2.50
2023-09-23T23:52:57.655Z,2.30
2023-09-23T23:55:25.914Z,2.00
2023-09-23T23:57:52.422Z,2.15
